Terminal Aerodrome Forecast
Issued by NWS

Home | Current Version | Previous Version | Text Only | Print | Product List | Glossary On
Versions: 1 2 3 4 5 6 7 8 9 10 11 12
000
FTUS43 KGRB 242300
TAFCWA
TAF
KCWA 242325Z 2500/2524 12009KT P6SM VCSH SCT050 OVC080
      TEMPO 2500/2502 -SHRA
     FM250700 09008KT P6SM SCT040 OVC060
     FM251500 08013G21KT P6SM BKN060
     FM252200 08009KT P6SM SCT070
      AMD LTD TO CLD VIS AND WIND 2503/2511=

USA.gov is the U.S. government's official web portal to all federal, state and local government web resources and services.